createdAt,value
2017-08-23T00:00:16.960Z,0
2017-08-23T00:01:27.231Z,0
2017-08-23T00:02:37.504Z,0
2017-08-23T00:03:47.163Z,0
2017-08-23T00:04:57.426Z,0
2017-08-23T00:06:07.378Z,0
2017-08-23T00:07:17.016Z,0
2017-08-23T00:08:27.282Z,0
2017-08-23T00:09:37.551Z,0
2017-08-23T00:10:47.190Z,0
2017-08-23T00:11:57.139Z,0
2017-08-23T00:13:07.416Z,0
2017-08-23T00:14:17.687Z,0
2017-08-23T00:15:27.642Z,0
2017-08-23T00:16:37.907Z,0
2017-08-23T00:17:47.858Z,0
2017-08-23T00:18:58.127Z,0
2017-08-23T00:20:08.394Z,0
2017-08-23T00:21:18.655Z,0
2017-08-23T00:22:28.921Z,0
2017-08-23T00:23:39.195Z,0
2017-08-23T00:24:49.460Z,0
2017-08-23T00:25:59.731Z,0
2017-08-23T00:27:09.996Z,0
2017-08-23T00:28:19.965Z,0
2017-08-23T00:29:30.231Z,0
2017-08-23T00:30:40.510Z,0
2017-08-23T00:31:49.831Z,0
2017-08-23T00:33:00.099Z,0
2017-08-23T00:34:10.058Z,0
2017-08-23T00:35:20.025Z,0
2017-08-23T00:36:29.982Z,0
2017-08-23T00:37:40.248Z,0
2017-08-23T00:38:50.515Z,0
2017-08-23T00:40:00.477Z,0
2017-08-23T00:41:10.745Z,0
2017-08-23T00:42:21.020Z,0
2017-08-23T00:43:31.292Z,0
2017-08-23T00:44:41.562Z,0
2017-08-23T00:45:51.825Z,0
2017-08-23T00:47:02.095Z,0
2017-08-23T00:48:12.368Z,0
2017-08-23T00:49:22.634Z,0
2017-08-23T00:50:32.899Z,0
2017-08-23T00:51:42.856Z,0
2017-08-23T00:52:52.826Z,0
2017-08-23T00:54:03.091Z,0
2017-08-23T00:55:13.365Z,0
2017-08-23T00:56:23.631Z,0
2017-08-23T00:57:33.900Z,0
2017-08-23T00:58:43.850Z,0
2017-08-23T00:59:53.490Z,0
2017-08-23T01:01:03.755Z,0
2017-08-23T01:02:14.038Z,0
2017-08-23T01:03:24.306Z,0
2017-08-23T01:04:34.256Z,0
2017-08-23T01:05:44.524Z,0
2017-08-23T01:06:54.483Z,0
2017-08-23T01:08:04.751Z,0
2017-08-23T01:09:15.019Z,0
2017-08-23T01:10:25.286Z,0
2017-08-23T01:11:35.241Z,0
2017-08-23T01:12:45.514Z,0
2017-08-23T01:13:55.783Z,0
2017-08-23T01:15:06.054Z,0
2017-08-23T01:16:16.318Z,0
2017-08-23T01:17:26.270Z,0
2017-08-23T01:18:36.540Z,0
2017-08-23T01:19:46.494Z,0
2017-08-23T01:20:56.769Z,0
2017-08-23T01:22:07.053Z,0
2017-08-23T01:23:17.362Z,0
2017-08-23T01:24:27.314Z,0
2017-08-23T01:25:37.033Z,0
2017-08-23T01:26:46.357Z,0
2017-08-23T01:27:56.622Z,0
2017-08-23T01:29:06.888Z,0
2017-08-23T01:30:16.526Z,0
2017-08-23T01:31:26.793Z,0
2017-08-23T01:32:37.056Z,0
2017-08-23T01:33:47.009Z,0
2017-08-23T01:34:56.647Z,0
2017-08-23T01:36:06.945Z,0
2017-08-23T01:37:17.211Z,0
2017-08-23T01:38:27.171Z,0
2017-08-23T01:39:37.437Z,0
2017-08-23T01:40:47.707Z,0
2017-08-23T01:41:57.972Z,0
2017-08-23T01:43:07.939Z,0
2017-08-23T01:44:18.210Z,0
2017-08-23T01:45:28.481Z,0
2017-08-23T01:46:38.431Z,0
2017-08-23T01:47:48.712Z,0
2017-08-23T01:48:58.974Z,0
2017-08-23T01:50:08.937Z,0
2017-08-23T01:51:19.223Z,0
2017-08-23T01:52:29.174Z,0
2017-08-23T01:53:39.126Z,0
2017-08-23T01:54:49.400Z,0
2017-08-23T01:55:59.673Z,0
2017-08-23T01:57:09.631Z,0
2017-08-23T01:58:19.906Z,0
2017-08-23T01:59:30.170Z,0
2017-08-23T02:00:40.434Z,0
2017-08-23T02:01:50.071Z,0
2017-08-23T02:03:00.339Z,0
2017-08-23T02:04:10.290Z,0
2017-08-23T02:05:20.564Z,0
2017-08-23T02:06:30.516Z,0
2017-08-23T02:07:40.810Z,0
2017-08-23T02:08:50.783Z,0
2017-08-23T02:10:01.053Z,0
2017-08-23T02:11:11.319Z,0
2017-08-23T02:12:20.965Z,0
2017-08-23T02:13:31.273Z,0
2017-08-23T02:14:41.539Z,0
2017-08-23T02:15:51.805Z,0
2017-08-23T02:17:01.759Z,0
2017-08-23T02:18:11.713Z,0
2017-08-23T02:19:21.671Z,0
2017-08-23T02:20:31.938Z,0
2017-08-23T02:21:42.208Z,0
2017-08-23T02:22:52.475Z,0
2017-08-23T02:24:02.746Z,0
2017-08-23T02:25:12.707Z,0
2017-08-23T02:26:22.974Z,0
2017-08-23T02:27:32.297Z,0
2017-08-23T02:28:42.563Z,0
2017-08-23T02:29:52.828Z,0
2017-08-23T02:31:02.783Z,0
2017-08-23T02:32:13.063Z,0
2017-08-23T02:33:23.329Z,0
2017-08-23T02:34:33.294Z,0
2017-08-23T02:35:43.560Z,0
2017-08-23T02:36:53.836Z,0
2017-08-23T02:38:04.105Z,0
2017-08-23T02:39:14.379Z,0
2017-08-23T02:40:24.648Z,0
2017-08-23T02:41:34.606Z,0
2017-08-23T02:42:44.564Z,0
2017-08-23T02:43:54.830Z,0
2017-08-23T02:45:05.093Z,0
2017-08-23T02:46:15.057Z,0
2017-08-23T02:47:25.329Z,0
2017-08-23T02:48:35.594Z,0
2017-08-23T02:49:45.233Z,0
2017-08-23T02:50:55.188Z,0
2017-08-23T02:52:05.141Z,0
2017-08-23T02:53:15.435Z,0
2017-08-23T02:54:25.708Z,0
2017-08-23T02:55:35.660Z,0
2017-08-23T02:56:45.612Z,0
2017-08-23T02:57:55.876Z,0
2017-08-23T02:59:06.149Z,0
2017-08-23T03:00:16.127Z,0
2017-08-23T03:01:26.396Z,0
2017-08-23T03:02:36.665Z,0
2017-08-23T03:03:46.933Z,0
2017-08-23T03:04:57.204Z,0
2017-08-23T03:06:07.480Z,0
2017-08-23T03:07:17.745Z,0
2017-08-23T03:08:28.012Z,0
2017-08-23T03:09:38.276Z,0
2017-08-23T03:10:48.228Z,0
2017-08-23T03:11:58.180Z,0
2017-08-23T03:13:07.819Z,0
2017-08-23T03:14:18.085Z,0
2017-08-23T03:15:28.349Z,0
2017-08-23T03:16:38.618Z,0
2017-08-23T03:17:48.567Z,0
2017-08-23T03:18:58.833Z,0
2017-08-23T03:20:09.109Z,0
2017-08-23T03:21:19.064Z,0
2017-08-23T03:22:29.327Z,0
2017-08-23T03:23:39.593Z,0
2017-08-23T03:24:49.863Z,0
2017-08-23T03:25:59.186Z,0
2017-08-23T03:27:09.454Z,0
2017-08-23T03:28:19.717Z,0
2017-08-23T03:29:29.986Z,0
2017-08-23T03:30:40.262Z,0
2017-08-23T03:31:50.213Z,0
2017-08-23T03:33:00.167Z,0
2017-08-23T03:34:10.122Z,0
2017-08-23T03:35:19.761Z,0
2017-08-23T03:36:29.406Z,0
2017-08-23T03:37:39.670Z,0
2017-08-23T03:38:49.624Z,5
2017-08-23T03:39:59.903Z,5
2017-08-23T03:41:10.169Z,5
2017-08-23T03:42:20.123Z,5
2017-08-23T03:43:30.079Z,5
2017-08-23T03:44:40.032Z,5
2017-08-23T03:45:50.302Z,5
2017-08-23T03:47:00.252Z,5
2017-08-23T03:48:10.233Z,10
2017-08-23T03:49:20.180Z,10
2017-08-23T03:50:30.154Z,10
2017-08-23T03:51:40.422Z,10
2017-08-23T03:52:50.698Z,10
2017-08-23T03:54:00.653Z,15
2017-08-23T03:55:10.922Z,15
2017-08-23T03:56:21.190Z,15
2017-08-23T03:57:31.458Z,15
2017-08-23T03:58:41.726Z,15
2017-08-23T03:59:51.688Z,15
2017-08-23T04:01:01.639Z,20
2017-08-23T04:02:11.930Z,20
2017-08-23T04:03:22.202Z,20
2017-08-23T04:04:32.160Z,20
2017-08-23T04:05:42.109Z,20
2017-08-23T04:06:52.069Z,20
2017-08-23T04:08:02.019Z,20
2017-08-23T04:09:12.288Z,25
2017-08-23T04:10:22.247Z,25
2017-08-23T04:11:32.521Z,25
2017-08-23T04:12:42.798Z,25
2017-08-23T04:13:53.061Z,25
2017-08-23T04:15:03.019Z,25
2017-08-23T04:16:12.974Z,25
2017-08-23T04:17:23.240Z,30
2017-08-23T04:18:33.195Z,30
2017-08-23T04:19:43.150Z,30
2017-08-23T04:20:53.414Z,30
2017-08-23T04:22:03.683Z,35
2017-08-23T04:23:13.638Z,35
2017-08-23T04:24:23.904Z,35
2017-08-23T04:25:34.174Z,35
2017-08-23T04:26:44.441Z,35
2017-08-23T04:27:54.712Z,35
2017-08-23T04:29:04.664Z,35
2017-08-23T04:30:14.938Z,30
2017-08-23T04:31:25.202Z,35
2017-08-23T04:32:35.471Z,35
2017-08-23T04:33:45.744Z,35
2017-08-23T04:34:56.018Z,35
2017-08-23T04:36:05.986Z,40
2017-08-23T04:37:15.310Z,40
2017-08-23T04:38:25.578Z,40
2017-08-23T04:39:35.850Z,40
2017-08-23T04:40:46.123Z,40
2017-08-23T04:41:56.392Z,45
2017-08-23T04:43:06.669Z,50
2017-08-23T04:44:16.311Z,55
2017-08-23T04:45:26.601Z,55
2017-08-23T04:46:36.868Z,60
2017-08-23T04:47:47.141Z,65
2017-08-23T04:48:57.094Z,65
2017-08-23T04:50:07.371Z,70
2017-08-23T04:51:17.333Z,75
2017-08-23T04:52:27.285Z,75
2017-08-23T04:53:37.240Z,80
2017-08-23T04:54:47.507Z,90
2017-08-23T04:55:57.781Z,90
2017-08-23T04:57:07.423Z,95
2017-08-23T04:58:17.691Z,105
2017-08-23T04:59:27.961Z,110
2017-08-23T05:00:37.290Z,115
2017-08-23T05:01:47.566Z,115
2017-08-23T05:02:57.841Z,125
2017-08-23T05:04:07.795Z,125
2017-08-23T05:05:18.065Z,125
2017-08-23T05:06:28.333Z,125
2017-08-23T05:07:38.299Z,130
2017-08-23T05:08:48.566Z,130
2017-08-23T05:09:58.521Z,130
2017-08-23T05:11:08.498Z,135
2017-08-23T05:12:18.767Z,135
2017-08-23T05:13:29.038Z,135
2017-08-23T05:14:38.989Z,130
2017-08-23T05:15:48.950Z,125
2017-08-23T05:16:58.905Z,130
2017-08-23T05:18:09.180Z,135
2017-08-23T05:19:19.455Z,135
2017-08-23T05:20:29.724Z,135
2017-08-23T05:21:39.362Z,135
2017-08-23T05:22:49.021Z,135
2017-08-23T05:23:58.977Z,135
2017-08-23T05:25:09.247Z,135
2017-08-23T05:26:19.201Z,135
2017-08-23T05:27:29.518Z,135
2017-08-23T05:28:39.789Z,140
2017-08-23T05:29:50.062Z,140
2017-08-23T05:30:59.414Z,140
2017-08-23T05:32:09.699Z,140
2017-08-23T05:33:19.969Z,140
2017-08-23T05:34:30.242Z,145
2017-08-23T05:35:40.518Z,140
2017-08-23T05:36:50.793Z,140
2017-08-23T05:38:01.060Z,140
2017-08-23T05:39:10.709Z,145
2017-08-23T05:40:20.980Z,145
2017-08-23T05:41:31.251Z,140
2017-08-23T05:42:41.524Z,140
2017-08-23T05:43:51.512Z,145
2017-08-23T05:45:01.156Z,145
2017-08-23T05:46:11.426Z,140
2017-08-23T05:47:21.698Z,145
2017-08-23T05:48:31.671Z,150
2017-08-23T05:49:41.626Z,155
2017-08-23T05:50:51.584Z,155
2017-08-23T05:52:01.542Z,165
2017-08-23T05:53:11.185Z,170
2017-08-23T05:54:20.831Z,180
2017-08-23T05:55:31.099Z,185
2017-08-23T05:56:41.052Z,195
2017-08-23T05:57:51.322Z,200
2017-08-23T05:59:01.606Z,205
2017-08-23T06:00:11.561Z,205
2017-08-23T06:01:21.211Z,205
2017-08-23T06:02:31.168Z,205
2017-08-23T06:03:40.823Z,205
2017-08-23T06:04:51.094Z,205
2017-08-23T06:06:01.364Z,205
2017-08-23T06:07:11.643Z,205
2017-08-23T06:08:21.609Z,200
2017-08-23T06:09:31.883Z,205
2017-08-23T06:10:42.154Z,205
2017-08-23T06:11:52.443Z,200
2017-08-23T06:13:02.713Z,200
2017-08-23T06:14:12.670Z,195
2017-08-23T06:15:22.945Z,195
2017-08-23T06:16:32.589Z,190
2017-08-23T06:17:42.546Z,185
2017-08-23T06:18:52.822Z,180
2017-08-23T06:20:03.096Z,175
2017-08-23T06:21:13.054Z,170
2017-08-23T06:22:23.006Z,165
2017-08-23T06:23:32.656Z,160
2017-08-23T06:24:42.928Z,155
2017-08-23T06:25:53.287Z,160
2017-08-23T06:27:03.574Z,165
2017-08-23T06:28:13.844Z,170
2017-08-23T06:29:24.123Z,175
2017-08-23T06:30:34.390Z,180
2017-08-23T06:31:44.703Z,185
2017-08-23T06:32:54.666Z,185
2017-08-23T06:34:04.941Z,180
2017-08-23T06:35:15.212Z,190
2017-08-23T06:36:25.175Z,185
2017-08-23T06:37:35.138Z,190
2017-08-23T06:38:44.781Z,200
2017-08-23T06:39:55.067Z,205
2017-08-23T06:41:05.344Z,215
2017-08-23T06:42:14.990Z,225
2017-08-23T06:43:25.265Z,225
2017-08-23T06:44:35.232Z,225
2017-08-23T06:45:45.499Z,225
2017-08-23T06:47:00.082Z,230
2017-08-23T06:48:10.036Z,235
2017-08-23T06:49:20.303Z,240
2017-08-23T06:50:30.574Z,240
2017-08-23T06:51:40.848Z,245
2017-08-23T06:52:51.117Z,245
2017-08-23T06:54:00.765Z,250
2017-08-23T06:55:11.045Z,250
2017-08-23T06:56:21.003Z,255
2017-08-23T06:57:30.964Z,260
2017-08-23T06:58:41.289Z,255
2017-08-23T06:59:51.249Z,250
2017-08-23T07:01:01.203Z,250
2017-08-23T07:02:11.487Z,245
2017-08-23T07:03:21.763Z,240
2017-08-23T07:04:32.040Z,235
2017-08-23T07:05:42.314Z,245
2017-08-23T07:06:52.584Z,245
2017-08-23T07:08:02.227Z,240
2017-08-23T07:09:12.183Z,235
2017-08-23T07:10:22.454Z,235
2017-08-23T07:11:32.409Z,235
2017-08-23T07:12:42.681Z,225
2017-08-23T07:13:52.954Z,220
2017-08-23T07:15:02.905Z,210
2017-08-23T07:16:12.873Z,205
2017-08-23T07:17:22.831Z,200
2017-08-23T07:18:32.790Z,200
2017-08-23T07:19:43.060Z,200
2017-08-23T07:20:53.374Z,200
2017-08-23T07:22:03.334Z,195
2017-08-23T07:23:13.615Z,195
2017-08-23T07:24:23.573Z,190
2017-08-23T07:25:33.536Z,195
2017-08-23T07:26:43.806Z,195
2017-08-23T07:27:54.106Z,195
2017-08-23T07:29:04.377Z,195
2017-08-23T07:30:14.332Z,185
2017-08-23T07:31:24.605Z,195
2017-08-23T07:32:34.877Z,195
2017-08-23T07:33:45.146Z,195
2017-08-23T07:34:54.793Z,195
2017-08-23T07:36:05.074Z,195
2017-08-23T07:37:15.349Z,195
2017-08-23T07:38:25.626Z,195
2017-08-23T07:39:35.581Z,205
2017-08-23T07:40:45.870Z,200
2017-08-23T07:41:56.165Z,200
2017-08-23T07:43:06.440Z,200
2017-08-23T07:44:16.711Z,205
2017-08-23T07:45:26.665Z,205
2017-08-23T07:46:36.014Z,205
2017-08-23T07:47:45.973Z,210
2017-08-23T07:48:56.248Z,205
2017-08-23T07:50:06.606Z,205
2017-08-23T07:51:16.884Z,210
2017-08-23T07:52:26.847Z,205
2017-08-23T07:53:36.805Z,205
2017-08-23T07:54:46.763Z,205
2017-08-23T07:55:57.045Z,195
2017-08-23T07:57:07.326Z,210
2017-08-23T07:58:17.284Z,210
2017-08-23T07:59:27.559Z,205
2017-08-23T08:00:37.514Z,215
2017-08-23T08:01:47.474Z,220
2017-08-23T08:02:57.750Z,225
2017-08-23T08:04:08.030Z,230
2017-08-23T08:05:18.309Z,230
2017-08-23T08:06:28.580Z,230
2017-08-23T08:07:38.535Z,235
2017-08-23T08:08:48.180Z,235
2017-08-23T08:09:58.140Z,240
2017-08-23T08:11:08.429Z,245
2017-08-23T08:12:18.704Z,245
2017-08-23T08:13:28.975Z,250
2017-08-23T08:14:39.246Z,255
2017-08-23T08:20:12.992Z,260
2017-08-23T08:21:22.322Z,265
2017-08-23T08:22:32.277Z,265
2017-08-23T08:23:42.552Z,265
2017-08-23T08:24:52.823Z,255
2017-08-23T08:26:03.346Z,260
2017-08-23T08:27:13.622Z,265
2017-08-23T08:28:23.602Z,265
2017-08-23T08:29:33.882Z,280
2017-08-23T08:30:43.837Z,285
2017-08-23T08:31:55.793Z,290
2017-08-23T08:33:06.067Z,300
2017-08-23T08:34:16.025Z,295
2017-08-23T08:35:25.689Z,295
2017-08-23T08:36:35.974Z,290
2017-08-23T08:37:45.930Z,285
2017-08-23T08:38:55.889Z,285
2017-08-23T08:40:06.163Z,290
2017-08-23T08:41:16.120Z,295
2017-08-23T08:42:26.078Z,295
2017-08-23T08:43:36.047Z,310
2017-08-23T08:44:46.013Z,325
2017-08-23T08:45:56.283Z,340
2017-08-23T08:47:06.241Z,350
2017-08-23T08:48:16.197Z,360
2017-08-23T08:49:26.158Z,365
2017-08-23T08:50:36.444Z,380
2017-08-23T08:51:46.724Z,400
2017-08-23T08:52:56.997Z,400
2017-08-23T08:54:07.289Z,425
2017-08-23T08:55:17.613Z,420
2017-08-23T08:56:27.262Z,425
2017-08-23T08:57:37.536Z,425
2017-08-23T08:58:47.813Z,430
2017-08-23T08:59:57.773Z,430
2017-08-23T09:01:08.044Z,430
2017-08-23T09:02:18.317Z,430
2017-08-23T09:03:28.591Z,425
2017-08-23T09:04:38.549Z,430
2017-08-23T09:05:48.222Z,420
2017-08-23T09:06:57.870Z,415
2017-08-23T09:08:08.140Z,410
2017-08-23T09:09:18.099Z,405
2017-08-23T09:10:28.387Z,405
2017-08-23T09:11:38.352Z,395
2017-08-23T09:12:48.311Z,390
2017-08-23T09:13:58.270Z,390
2017-08-23T09:15:08.548Z,405
2017-08-23T09:16:17.878Z,425
2017-08-23T09:17:28.152Z,450
2017-08-23T09:18:38.123Z,480
2017-08-23T09:19:48.085Z,495
2017-08-23T09:20:58.046Z,500
2017-08-23T09:22:08.011Z,495
2017-08-23T09:23:18.289Z,490
2017-08-23T09:24:28.580Z,490
2017-08-23T09:25:38.853Z,500
2017-08-23T09:26:49.126Z,500
2017-08-23T09:27:59.095Z,495
2017-08-23T09:29:09.376Z,480
2017-08-23T09:30:19.649Z,470
2017-08-23T09:31:29.926Z,465
2017-08-23T09:32:40.202Z,470
2017-08-23T09:33:50.477Z,485
2017-08-23T09:35:00.123Z,480
2017-08-23T09:36:10.399Z,480
2017-08-23T09:37:20.675Z,475
2017-08-23T09:38:30.949Z,480
2017-08-23T09:39:40.605Z,485
2017-08-23T09:40:50.569Z,480
2017-08-23T09:42:00.215Z,470
2017-08-23T09:43:10.507Z,465
2017-08-23T09:44:20.780Z,450
2017-08-23T09:45:30.749Z,450
2017-08-23T09:46:41.027Z,445
2017-08-23T09:47:51.351Z,440
2017-08-23T09:49:01.635Z,435
2017-08-23T09:50:11.592Z,435
2017-08-23T09:51:21.558Z,445
2017-08-23T09:52:31.835Z,435
2017-08-23T09:53:42.112Z,450
2017-08-23T09:54:52.384Z,460
2017-08-23T09:56:02.659Z,470
2017-08-23T09:57:12.932Z,450
2017-08-23T09:58:22.917Z,455
2017-08-23T09:59:33.190Z,455
2017-08-23T10:00:43.477Z,440
2017-08-23T10:01:53.436Z,445
2017-08-23T10:03:03.712Z,440
2017-08-23T10:04:13.986Z,440
2017-08-23T10:05:23.637Z,435
2017-08-23T10:06:33.924Z,430
2017-08-23T10:07:44.194Z,415
2017-08-23T10:08:54.466Z,415
2017-08-23T10:10:04.424Z,425
2017-08-23T10:11:14.695Z,425
2017-08-23T10:12:24.342Z,430
2017-08-23T10:13:34.312Z,445
2017-08-23T10:14:44.588Z,455
2017-08-23T10:15:54.237Z,465
2017-08-23T10:17:04.213Z,460
2017-08-23T10:18:14.180Z,465
2017-08-23T10:19:24.456Z,455
2017-08-23T10:20:33.791Z,440
2017-08-23T10:21:43.445Z,440
2017-08-23T10:22:53.408Z,425
2017-08-23T10:24:03.682Z,420
2017-08-23T10:25:13.956Z,415
2017-08-23T10:26:24.254Z,410
2017-08-23T10:27:34.222Z,410
2017-08-23T10:28:44.181Z,405
2017-08-23T10:29:54.461Z,405
2017-08-23T10:31:04.743Z,405
2017-08-23T10:32:15.022Z,395
2017-08-23T10:33:25.302Z,390
2017-08-23T10:34:35.582Z,380
2017-08-23T10:35:45.233Z,385
2017-08-23T10:36:55.507Z,380
2017-08-23T10:38:05.790Z,385
2017-08-23T10:39:16.063Z,370
2017-08-23T10:40:25.712Z,370
2017-08-23T10:41:35.990Z,365
2017-08-23T10:42:46.267Z,370
2017-08-23T10:43:56.544Z,365
2017-08-23T10:45:06.504Z,365
2017-08-23T10:46:16.784Z,365
2017-08-23T10:47:26.750Z,375
2017-08-23T10:48:36.738Z,375
2017-08-23T10:49:46.698Z,380
2017-08-23T10:50:56.746Z,385
2017-08-23T10:52:07.021Z,390
2017-08-23T10:53:17.301Z,400
2017-08-23T10:54:27.586Z,410
2017-08-23T10:55:37.859Z,420
2017-08-23T10:56:48.137Z,425
2017-08-23T10:57:57.782Z,440
2017-08-23T10:59:07.446Z,440
2017-08-23T11:00:17.404Z,455
2017-08-23T11:01:27.366Z,460
2017-08-23T11:02:37.643Z,475
2017-08-23T11:03:47.920Z,485
2017-08-23T11:04:57.882Z,495
2017-08-23T11:06:07.544Z,500
2017-08-23T11:07:17.508Z,510
2017-08-23T11:08:27.469Z,520
2017-08-23T11:09:37.742Z,525
2017-08-23T11:10:48.019Z,520
2017-08-23T11:11:58.299Z,520
2017-08-23T11:13:08.586Z,525
2017-08-23T11:14:18.545Z,530
2017-08-23T11:15:28.837Z,535
2017-08-23T11:16:38.800Z,535
2017-08-23T11:17:48.762Z,525
2017-08-23T11:18:59.040Z,530
2017-08-23T11:20:09.316Z,550
2017-08-23T11:21:19.280Z,580
2017-08-23T11:22:28.933Z,1370
2017-08-23T11:23:39.215Z,2125
2017-08-23T11:24:49.495Z,2175
2017-08-23T11:25:59.891Z,2225
2017-08-23T11:27:10.170Z,2245
2017-08-23T11:28:20.132Z,2255
2017-08-23T11:29:30.105Z,2185
2017-08-23T11:30:40.068Z,2180
2017-08-23T11:31:50.036Z,2160
2017-08-23T11:33:00.006Z,2185
2017-08-23T11:34:09.656Z,2080
2017-08-23T11:35:19.309Z,2295
2017-08-23T11:36:29.283Z,2410
2017-08-23T11:37:39.251Z,2340
2017-08-23T11:38:49.545Z,2175
2017-08-23T11:39:59.529Z,2320
2017-08-23T11:41:09.816Z,2350
2017-08-23T11:42:20.114Z,1950
2017-08-23T11:43:30.399Z,1940
2017-08-23T11:44:40.365Z,1870
2017-08-23T11:45:50.022Z,1460
2017-08-23T11:47:00.003Z,1140
2017-08-23T11:48:10.288Z,1670
2017-08-23T11:49:19.944Z,1620
2017-08-23T11:50:29.922Z,1575
2017-08-23T11:51:39.898Z,1820
2017-08-23T11:52:49.559Z,1700
2017-08-23T11:53:59.849Z,1580
2017-08-23T11:55:09.823Z,1640
2017-08-23T11:56:20.115Z,1760
2017-08-23T11:57:30.398Z,1630
2017-08-23T11:58:40.392Z,1585
2017-08-23T11:59:50.043Z,1460
2017-08-23T12:01:00.016Z,1220
2017-08-23T12:02:10.301Z,1125
2017-08-23T12:03:20.590Z,1285
2017-08-23T12:04:30.876Z,1265
2017-08-23T12:05:41.161Z,1220
2017-08-23T12:06:51.149Z,1350
2017-08-23T12:08:01.117Z,1565
2017-08-23T12:09:11.406Z,1510
2017-08-23T12:10:21.690Z,1285
2017-08-23T12:11:31.978Z,1510
2017-08-23T12:12:41.635Z,1075
2017-08-23T12:13:51.928Z,1030
2017-08-23T12:15:01.585Z,905
2017-08-23T12:16:11.882Z,1010
2017-08-23T12:17:21.852Z,900
2017-08-23T12:18:32.139Z,820
2017-08-23T12:19:41.811Z,925
2017-08-23T12:20:51.786Z,855
2017-08-23T12:22:01.755Z,930
2017-08-23T12:23:11.721Z,1040
2017-08-23T12:24:22.010Z,1165
2017-08-23T12:25:32.305Z,1255
2017-08-23T12:26:42.281Z,1265
2017-08-23T12:27:51.937Z,1425
2017-08-23T12:29:01.598Z,1560
2017-08-23T12:30:11.897Z,1610
2017-08-23T12:31:22.185Z,1425
2017-08-23T12:32:32.164Z,1130
2017-08-23T12:33:42.468Z,1490
2017-08-23T12:34:52.754Z,2130
2017-08-23T12:36:03.043Z,1875
2017-08-23T12:37:13.015Z,1745
2017-08-23T12:38:22.670Z,1855
2017-08-23T12:39:32.959Z,1895
2017-08-23T12:40:42.929Z,1835
2017-08-23T12:41:52.900Z,1925
2017-08-23T12:43:03.188Z,2070
2017-08-23T12:44:13.480Z,2165
2017-08-23T12:45:23.453Z,2325
2017-08-23T12:46:33.456Z,2475
2017-08-23T12:47:43.432Z,2575
2017-08-23T12:48:53.722Z,2630
2017-08-23T12:50:04.026Z,2625
2017-08-23T12:51:14.317Z,2965
2017-08-23T12:52:24.600Z,3045
2017-08-23T12:53:34.891Z,2740
2017-08-23T12:54:44.552Z,2680
2017-08-23T12:55:54.844Z,2930
2017-08-23T12:57:04.823Z,2775
2017-08-23T12:58:15.123Z,2745
2017-08-23T12:59:25.105Z,2605
2017-08-23T13:00:35.078Z,2680
2017-08-23T13:01:45.368Z,2415
2017-08-23T13:02:55.345Z,2325
2017-08-23T13:04:05.318Z,2815
2017-08-23T13:05:15.304Z,2930
2017-08-23T13:06:25.601Z,2510
2017-08-23T13:07:35.890Z,2085
2017-08-23T13:08:45.558Z,1305
2017-08-23T13:09:55.865Z,1415
2017-08-23T13:11:05.524Z,1820
2017-08-23T13:12:15.188Z,2000
2017-08-23T13:13:24.852Z,1960
2017-08-23T13:14:35.144Z,2230
2017-08-23T13:15:45.431Z,1315
2017-08-23T13:16:55.087Z,1235
2017-08-23T13:18:04.116Z,2310
2017-08-23T13:19:13.473Z,1470
2017-08-23T13:20:23.131Z,1465
2017-08-23T13:21:33.114Z,1235
2017-08-23T13:22:43.489Z,1425
2017-08-23T13:23:53.775Z,825
2017-08-23T13:25:04.067Z,860
2017-08-23T13:26:13.727Z,1740
2017-08-23T13:27:23.713Z,2395
2017-08-23T13:28:33.745Z,2770
2017-08-23T13:29:44.176Z,2495
2017-08-23T13:30:54.462Z,2515
2017-08-23T13:32:04.130Z,2735
2017-08-23T13:33:13.797Z,2895
2017-08-23T13:34:24.111Z,2830
2017-08-23T13:35:34.398Z,2485
2017-08-23T13:36:44.371Z,2265
2017-08-23T13:37:54.344Z,1875
2017-08-23T13:39:04.319Z,1580
2017-08-23T13:40:13.990Z,1830
2017-08-23T13:41:23.972Z,1565
2017-08-23T13:42:34.261Z,1530
2017-08-23T13:43:44.238Z,1070
2017-08-23T13:44:54.215Z,1425
2017-08-23T13:46:04.505Z,1770
2017-08-23T13:47:14.163Z,2605
2017-08-23T13:48:24.449Z,2620
2017-08-23T13:49:34.109Z,2430
2017-08-23T13:50:43.779Z,2165
2017-08-23T13:51:53.778Z,2020
2017-08-23T13:53:04.065Z,1940
2017-08-23T13:54:14.037Z,2495
2017-08-23T13:55:23.473Z,2775
2017-08-23T13:56:33.449Z,2240
2017-08-23T13:57:43.738Z,1765
2017-08-23T13:58:53.711Z,1470
2017-08-23T14:00:03.690Z,1715
2017-08-23T14:01:13.979Z,2315
2017-08-23T14:02:23.957Z,2420
2017-08-23T14:03:33.945Z,2230
2017-08-23T14:04:43.925Z,2010
2017-08-23T14:05:54.213Z,1675
2017-08-23T14:07:03.902Z,1295
2017-08-23T14:08:13.877Z,1235
2017-08-23T14:09:24.168Z,1345
2017-08-23T14:10:34.145Z,1190
2017-08-23T14:11:44.119Z,1290
2017-08-23T14:12:54.411Z,1330
2017-08-23T14:14:04.383Z,1115
2017-08-23T14:15:13.727Z,1230
2017-08-23T14:16:24.016Z,1450
2017-08-23T14:17:33.989Z,1605
2017-08-23T14:18:44.283Z,2000
2017-08-23T14:19:54.308Z,1955
2017-08-23T14:21:04.597Z,2010
2017-08-23T14:22:14.571Z,1775
2017-08-23T14:23:24.662Z,2015
2017-08-23T14:24:34.971Z,2140
2017-08-23T14:25:44.982Z,2095
2017-08-23T14:26:54.954Z,2180
2017-08-23T14:28:04.944Z,2005
2017-08-23T14:29:14.602Z,1925
2017-08-23T14:30:24.825Z,1800
2017-08-23T14:31:34.484Z,1670
2017-08-23T14:32:45.111Z,1710
2017-08-23T14:33:55.159Z,1165
2017-08-23T14:35:05.449Z,1065
2017-08-23T14:36:15.739Z,1905
2017-08-23T14:37:26.034Z,1860
2017-08-23T14:38:36.321Z,2055
2017-08-23T14:39:46.018Z,2100
2017-08-23T14:40:55.993Z,1965
2017-08-23T14:42:05.963Z,1895
2017-08-23T14:43:15.624Z,2165
2017-08-23T14:44:25.912Z,2265
2017-08-23T14:45:36.206Z,2365
2017-08-23T14:46:45.548Z,2475
2017-08-23T14:47:55.869Z,2495
2017-08-23T14:49:06.161Z,2355
2017-08-23T14:50:16.178Z,2070
2017-08-23T14:51:26.150Z,1625
2017-08-23T14:52:36.134Z,1405
2017-08-23T14:53:45.479Z,1345
2017-08-23T14:54:55.460Z,1530
2017-08-23T14:56:05.130Z,1660
2017-08-23T14:57:15.103Z,1420
2017-08-23T14:58:25.397Z,1555
2017-08-23T14:59:35.683Z,1465
2017-08-23T15:00:45.342Z,1845
2017-08-23T15:01:55.635Z,1660
2017-08-23T15:03:05.926Z,2100
2017-08-23T15:04:15.593Z,2245
2017-08-23T15:05:25.567Z,2250
2017-08-23T15:06:35.860Z,2280
2017-08-23T15:07:45.836Z,2195
2017-08-23T15:08:56.130Z,2195
2017-08-23T15:10:06.425Z,2165
2017-08-23T15:11:16.718Z,2150
2017-08-23T15:12:26.694Z,2140
2017-08-23T15:13:36.672Z,2240
2017-08-23T15:14:46.973Z,2170
2017-08-23T15:15:56.953Z,2220
2017-08-23T15:17:06.926Z,2155
2017-08-23T15:18:17.222Z,2125
2017-08-23T15:19:27.195Z,2125
2017-08-23T15:20:37.170Z,2110
2017-08-23T15:21:47.460Z,2135
2017-08-23T15:22:57.748Z,2155
2017-08-23T15:24:07.727Z,2155
2017-08-23T15:25:17.396Z,2100
2017-08-23T15:26:27.373Z,2060
2017-08-23T15:27:37.036Z,2165
2017-08-23T15:28:47.016Z,2010
2017-08-23T15:29:57.310Z,2020
2017-08-23T15:31:07.600Z,1660
2017-08-23T15:32:17.582Z,745
2017-08-23T15:33:27.587Z,1025
2017-08-23T15:34:37.874Z,1340
2017-08-23T15:35:48.170Z,835
2017-08-23T15:36:58.346Z,435
2017-08-23T15:38:08.638Z,410
2017-08-23T15:39:18.620Z,415
2017-08-23T15:40:28.915Z,400
2017-08-23T15:41:38.895Z,415
2017-08-23T15:42:49.184Z,420
2017-08-23T15:43:59.475Z,385
2017-08-23T15:45:09.457Z,365
2017-08-23T15:46:19.430Z,350
2017-08-23T15:47:29.718Z,345
2017-08-23T15:48:40.012Z,350
2017-08-23T15:49:50.298Z,355
2017-08-23T15:51:00.273Z,350
2017-08-23T15:52:10.241Z,350
2017-08-23T15:53:20.532Z,350
2017-08-23T15:54:30.820Z,345
2017-08-23T15:55:41.103Z,350
2017-08-23T15:56:51.387Z,345
2017-08-23T15:58:01.671Z,350
2017-08-23T15:59:11.011Z,345
2017-08-23T16:00:21.297Z,345
2017-08-23T16:01:31.267Z,345
2017-08-23T16:02:41.239Z,345
2017-08-23T16:03:51.527Z,340
2017-08-23T16:05:01.811Z,335
2017-08-23T16:06:11.466Z,335
2017-08-23T16:07:21.751Z,335
2017-08-23T16:08:31.731Z,340
2017-08-23T16:09:42.029Z,335
2017-08-23T16:10:51.997Z,330
2017-08-23T16:12:02.279Z,330
2017-08-23T16:13:12.247Z,330
2017-08-23T16:14:22.531Z,330
2017-08-23T16:15:32.813Z,330
2017-08-23T16:16:43.098Z,335
2017-08-23T16:17:53.378Z,330
2017-08-23T16:19:03.658Z,325